createdAt,value
2022-10-11T00:01:37.835Z,58.78
2022-10-11T00:06:31.317Z,58.61
2022-10-11T00:11:25.227Z,58.41
2022-10-11T00:16:18.741Z,58.53
2022-10-11T00:21:14.452Z,58.31
2022-10-11T00:26:10.195Z,59.25
2022-10-11T00:31:07.336Z,58.93
2022-10-11T00:36:01.579Z,59.43
2022-10-11T00:40:56.084Z,59.39
2022-10-11T00:45:57.831Z,59.39
2022-10-11T00:50:51.926Z,59.29
2022-10-11T00:55:52.561Z,59.71
2022-10-11T01:00:46.356Z,59.47
2022-10-11T01:05:41.105Z,59.24
2022-10-11T01:10:34.898Z,59.59
2022-10-11T01:16:08.633Z,59.21
2022-10-11T01:21:19.636Z,59.18
2022-10-11T01:26:54.839Z,59.33
2022-10-11T01:32:04.375Z,59.27
2022-10-11T01:37:12.871Z,59.43
2022-10-11T01:42:10.616Z,59.22
2022-10-11T01:47:04.010Z,59.23
2022-10-11T01:52:00.432Z,58.94
2022-10-11T01:57:32.090Z,59.36
2022-10-11T02:02:27.417Z,59.13
2022-10-11T02:07:25.943Z,59.10
2022-10-11T02:12:28.917Z,58.88
2022-10-11T02:17:28.521Z,58.91
2022-10-11T02:22:29.204Z,58.88
2022-10-11T02:27:27.578Z,58.84
2022-10-11T02:32:23.288Z,59.23
2022-10-11T02:37:23.898Z,58.87
2022-10-11T02:42:27.705Z,59.25
2022-10-11T02:47:22.263Z,59.16
2022-10-11T02:52:15.833Z,58.68
2022-10-11T02:57:09.515Z,59.05
2022-10-11T03:02:03.380Z,58.65
2022-10-11T03:06:56.534Z,58.58
2022-10-11T03:11:50.254Z,58.87
2022-10-11T03:16:43.990Z,59.00
2022-10-11T03:21:38.059Z,58.54
2022-10-11T03:26:31.596Z,58.67
2022-10-11T03:31:25.140Z,58.93
2022-10-11T03:36:20.087Z,58.66
2022-10-11T03:41:12.954Z,58.69
2022-10-11T03:46:09.042Z,59.03
2022-10-11T03:51:03.544Z,58.92
2022-10-11T03:55:57.421Z,59.00
2022-10-11T04:00:50.957Z,58.58
2022-10-11T04:05:45.274Z,58.71
2022-10-11T04:10:38.836Z,58.71
2022-10-11T04:15:32.873Z,58.57
2022-10-11T04:20:25.953Z,58.44
2022-10-11T04:25:19.806Z,58.89
2022-10-11T04:30:14.926Z,58.85
2022-10-11T04:35:08.852Z,58.67
2022-10-11T04:40:02.685Z,58.42
2022-10-11T04:44:56.237Z,58.88
2022-10-11T04:49:49.257Z,58.66
2022-10-11T04:54:43.032Z,58.43
2022-10-11T04:59:36.632Z,58.52
2022-10-11T05:04:30.706Z,58.82
2022-10-11T05:09:24.197Z,58.32
2022-10-11T05:14:17.997Z,58.67
2022-10-11T05:19:12.028Z,58.86
2022-10-11T05:24:06.888Z,58.81
2022-10-11T05:28:59.876Z,59.02
2022-10-11T05:33:53.736Z,58.27
2022-10-11T05:38:48.217Z,58.34
2022-10-11T05:43:42.914Z,58.69
2022-10-11T05:48:36.165Z,58.13
2022-10-11T05:53:30.644Z,57.61
2022-10-11T05:58:24.104Z,53.84
2022-10-11T06:03:17.037Z,52.29
2022-10-11T06:08:11.917Z,51.95
2022-10-11T06:13:06.118Z,51.82
2022-10-11T06:18:03.776Z,51.99
2022-10-11T06:22:57.210Z,52.25
2022-10-11T06:27:50.956Z,52.56
2022-10-11T06:32:44.345Z,52.82
2022-10-11T06:37:38.389Z,52.90
2022-10-11T06:42:31.958Z,52.92
2022-10-11T06:47:25.884Z,53.07
2022-10-11T06:52:19.390Z,53.41
2022-10-11T06:57:12.558Z,53.80
2022-10-11T07:02:06.868Z,54.05
2022-10-11T07:07:04.505Z,53.62
2022-10-11T07:11:59.804Z,54.03
2022-10-11T07:16:53.728Z,54.05
2022-10-11T07:21:47.032Z,54.58
2022-10-11T07:26:40.357Z,54.28
2022-10-11T07:31:34.021Z,54.49
2022-10-11T07:36:27.535Z,54.35
2022-10-11T07:41:21.404Z,54.61
2022-10-11T07:46:15.163Z,54.95
2022-10-11T07:51:13.850Z,53.87
2022-10-11T07:56:09.389Z,53.31
2022-10-11T08:01:03.657Z,54.02
2022-10-11T08:06:05.381Z,53.85
2022-10-11T08:11:00.254Z,54.80
2022-10-11T08:15:54.134Z,53.83
2022-10-11T08:20:47.704Z,54.41
2022-10-11T08:25:44.682Z,54.39
2022-10-11T08:30:38.460Z,54.22
2022-10-11T08:35:32.424Z,53.59
2022-10-11T08:40:26.015Z,54.05
2022-10-11T08:45:31.871Z,53.74
2022-10-11T08:50:25.146Z,54.30
2022-10-11T08:55:38.186Z,53.67
2022-10-11T09:00:34.293Z,54.54
2022-10-11T09:05:33.864Z,54.44
2022-10-11T09:10:46.567Z,54.39
2022-10-11T09:15:51.933Z,54.31
2022-10-11T09:21:14.366Z,54.54
2022-10-11T09:26:24.085Z,54.17
2022-10-11T09:31:18.649Z,53.74
2022-10-11T09:36:40.923Z,53.76
2022-10-11T09:42:05.593Z,53.72
2022-10-11T09:47:03.636Z,53.41
2022-10-11T09:51:59.701Z,53.38
2022-10-11T09:56:53.977Z,53.24
2022-10-11T10:01:47.574Z,53.41
2022-10-11T10:06:41.436Z,53.46
2022-10-11T10:11:38.425Z,53.96
2022-10-11T10:16:41.603Z,54.19
2022-10-11T10:21:38.112Z,53.85
2022-10-11T10:26:36.884Z,53.86
2022-10-11T10:32:09.223Z,53.77
2022-10-11T10:36:59.081Z,53.60
2022-10-11T10:41:52.351Z,53.09
2022-10-11T10:46:47.927Z,52.55
2022-10-11T10:52:06.645Z,52.79
2022-10-11T10:57:04.627Z,52.36
2022-10-11T11:02:28.204Z,51.63
2022-10-11T11:07:49.345Z,52.29
2022-10-11T11:13:03.933Z,51.29
2022-10-11T11:18:42.761Z,51.41
2022-10-11T11:23:43.640Z,52.02
2022-10-11T11:28:54.002Z,51.24
2022-10-11T11:34:06.008Z,51.84
2022-10-11T11:39:02.569Z,51.47
2022-10-11T11:44:18.549Z,51.42
2022-10-11T11:49:18.932Z,51.10
2022-10-11T11:54:49.492Z,50.79
2022-10-11T11:59:43.063Z,51.60
2022-10-11T12:04:39.926Z,51.00
2022-10-11T12:09:35.482Z,51.81
2022-10-11T12:14:40.347Z,51.83
2022-10-11T12:19:34.452Z,51.67
2022-10-11T12:24:57.557Z,52.04
2022-10-11T12:29:52.119Z,52.38
2022-10-11T12:34:46.167Z,51.75
2022-10-11T12:39:55.797Z,51.14
2022-10-11T12:45:13.754Z,51.12
2022-10-11T12:50:28.792Z,50.74
2022-10-11T12:56:03.324Z,50.98
2022-10-11T13:00:56.714Z,50.55
2022-10-11T13:05:53.727Z,50.67
2022-10-11T13:10:49.564Z,50.46
2022-10-11T13:15:43.884Z,50.40
2022-10-11T13:20:41.714Z,50.32
2022-10-11T13:25:42.516Z,50.78
2022-10-11T13:30:37.798Z,50.88
2022-10-11T13:35:36.863Z,50.64
2022-10-11T13:40:31.864Z,50.86
2022-10-11T13:45:28.561Z,50.75
2022-10-11T13:50:32.734Z,51.08
2022-10-11T13:55:36.602Z,51.04
2022-10-11T14:00:37.352Z,50.54
2022-10-11T14:05:30.645Z,50.76
2022-10-11T14:10:24.918Z,50.22
2022-10-11T14:15:24.000Z,50.50
2022-10-11T14:20:35.672Z,50.39
2022-10-11T14:25:29.909Z,50.49
2022-10-11T14:30:26.184Z,50.79
2022-10-11T14:35:26.296Z,50.50
2022-10-11T14:40:22.926Z,49.59
2022-10-11T14:45:16.436Z,49.26
2022-10-11T14:50:33.739Z,50.38
2022-10-11T14:55:27.720Z,49.91
2022-10-11T15:00:23.779Z,50.11
2022-10-11T15:05:18.009Z,50.23
2022-10-11T15:10:19.539Z,50.25
2022-10-11T15:15:16.791Z,50.74
2022-10-11T15:20:19.165Z,50.84
2022-10-11T15:25:16.495Z,50.86
2022-10-11T15:30:28.377Z,51.84
2022-10-11T15:35:23.553Z,51.14
2022-10-11T15:40:25.176Z,51.79
2022-10-11T15:45:21.636Z,50.99
2022-10-11T15:50:34.425Z,51.48
2022-10-11T15:55:28.483Z,52.14
2022-10-11T16:00:22.558Z,52.06
2022-10-11T16:05:16.476Z,52.47
2022-10-11T16:10:11.636Z,52.17
2022-10-11T16:15:05.917Z,52.76
2022-10-11T16:20:00.295Z,52.76
2022-10-11T16:24:54.075Z,53.06
2022-10-11T16:29:47.974Z,52.75
2022-10-11T16:34:42.229Z,52.85
2022-10-11T16:39:35.381Z,53.10
2022-10-11T16:44:29.716Z,53.16
2022-10-11T16:49:26.838Z,53.09
2022-10-11T16:54:20.969Z,53.49
2022-10-11T16:59:14.913Z,54.03
2022-10-11T17:04:09.173Z,55.87
2022-10-11T17:09:03.573Z,58.45
2022-10-11T17:13:56.821Z,59.74
2022-10-11T17:18:50.713Z,58.41
2022-10-11T17:23:44.385Z,58.81
2022-10-11T17:28:37.676Z,58.94
2022-10-11T17:33:32.050Z,58.87
2022-10-11T17:38:28.213Z,58.26
2022-10-11T17:43:22.035Z,57.63
2022-10-11T17:48:16.121Z,57.13
2022-10-11T17:53:10.202Z,56.79
2022-10-11T17:58:04.291Z,57.04
2022-10-11T18:02:58.073Z,56.31
2022-10-11T18:07:54.488Z,56.10
2022-10-11T18:12:47.841Z,54.73
2022-10-11T18:17:41.880Z,54.24
2022-10-11T18:22:35.222Z,53.53
2022-10-11T18:27:30.233Z,52.90
2022-10-11T18:32:23.893Z,51.71
2022-10-11T18:37:18.055Z,52.27
2022-10-11T18:42:11.995Z,52.78
2022-10-11T18:47:06.017Z,52.42
2022-10-11T18:51:59.764Z,52.04
2022-10-11T18:56:54.136Z,52.34
2022-10-11T19:01:48.716Z,53.32
2022-10-11T19:06:45.174Z,53.47
2022-10-11T19:11:42.957Z,53.17
2022-10-11T19:16:40.329Z,53.00
2022-10-11T19:21:34.625Z,52.86
2022-10-11T19:26:32.020Z,53.58
2022-10-11T19:31:26.527Z,53.58
2022-10-11T19:36:19.994Z,53.46
2022-10-11T19:41:15.894Z,53.67
2022-10-11T19:46:11.389Z,53.46
2022-10-11T19:51:08.537Z,54.02
2022-10-11T19:56:06.613Z,53.70
2022-10-11T20:01:14.072Z,53.97
2022-10-11T20:06:08.672Z,54.58
2022-10-11T20:11:10.776Z,54.88
2022-10-11T20:16:27.208Z,55.42
2022-10-11T20:21:22.504Z,55.95
2022-10-11T20:26:21.594Z,56.98
2022-10-11T20:31:16.728Z,60.95
2022-10-11T20:36:13.941Z,62.12
2022-10-11T20:41:09.060Z,63.05
2022-10-11T20:46:07.954Z,62.54
2022-10-11T20:51:01.815Z,64.70
2022-10-11T20:55:56.378Z,64.38
2022-10-11T21:00:50.252Z,64.35
2022-10-11T21:05:44.168Z,64.44
2022-10-11T21:10:37.764Z,63.99
2022-10-11T21:15:32.105Z,63.77
2022-10-11T21:20:26.005Z,62.93
2022-10-11T21:25:20.598Z,62.22
2022-10-11T21:30:12.988Z,63.62
2022-10-11T21:35:06.721Z,64.26
2022-10-11T21:40:00.057Z,64.61
2022-10-11T21:44:52.979Z,65.31
2022-10-11T21:49:50.869Z,65.45
2022-10-11T21:54:45.687Z,65.16
2022-10-11T21:59:39.297Z,65.70
2022-10-11T22:04:33.435Z,66.21
2022-10-11T22:09:29.139Z,65.95
2022-10-11T22:14:22.518Z,65.64
2022-10-11T22:19:15.459Z,66.65
2022-10-11T22:24:10.134Z,66.99
2022-10-11T22:29:03.370Z,67.00
2022-10-11T22:33:59.349Z,66.74
2022-10-11T22:38:52.634Z,66.83
2022-10-11T22:43:46.133Z,67.22
2022-10-11T22:48:39.961Z,66.96
2022-10-11T22:53:33.178Z,67.27
2022-10-11T22:58:26.461Z,67.01
2022-10-11T23:03:20.811Z,67.01
2022-10-11T23:08:14.933Z,67.17
2022-10-11T23:13:07.944Z,67.41
2022-10-11T23:18:00.829Z,67.18
2022-10-11T23:22:55.035Z,67.59
2022-10-11T23:27:48.164Z,67.36
2022-10-11T23:32:41.526Z,67.34
2022-10-11T23:37:36.117Z,67.40
2022-10-11T23:42:30.113Z,67.29
2022-10-11T23:47:24.083Z,67.24
2022-10-11T23:52:17.512Z,67.29
2022-10-11T23:57:10.741Z,67.21
